Time;durP1;ratioP1;P1;durP2;ratioP2;P2;SDS_P1;SDS_P2;PMS_P1;PMS_P2;Temp;Humidity;BMP_temperature;BMP_pressure;BME280_temperature;BME280_humidity;BME280_pressure;Samples;Min_cycle;Max_cycle;Signal;HPM_P1;HPM_P2
2023/07/24 00:02:14;;;;;;;0.70;0.60;;;;;;;20.84;93.25;99641.03;5009104;28;20042;-62
2023/07/24 00:04:40;;;;;;;0.55;0.43;;;;;;;20.86;93.51;99644.09;5009304;28;20022;-63
2023/07/24 00:07:05;;;;;;;1.30;0.55;;;;;;;20.85;93.62;99644.53;5006051;28;20504;-61
2023/07/24 00:09:31;;;;;;;0.75;0.50;;;;;;;20.89;93.70;99631.44;5002661;28;20065;-62
2023/07/24 00:11:56;;;;;;;1.02;0.60;;;;;;;20.93;93.37;99635.59;5009047;28;20059;-64
2023/07/24 00:14:22;;;;;;;0.95;0.68;;;;;;;20.90;93.04;99636.50;5075243;28;20075;-62
2023/07/24 00:16:47;;;;;;;1.08;0.55;;;;;;;20.83;93.74;99633.28;5009694;28;20450;-63
2023/07/24 00:19:12;;;;;;;0.73;0.65;;;;;;;20.89;93.98;99621.28;5009475;28;20524;-64
2023/07/24 00:21:38;;;;;;;1.05;0.85;;;;;;;20.88;94.14;99629.94;5077449;28;20375;-61
2023/07/24 00:24:04;;;;;;;0.77;0.60;;;;;;;20.83;94.36;99616.84;5003046;28;20060;-63
2023/07/24 00:26:29;;;;;;;3.50;0.65;;;;;;;20.83;94.69;99627.81;5067753;28;20133;-64
2023/07/24 00:28:55;;;;;;;1.48;0.73;;;;;;;20.80;94.85;99613.03;5076998;28;20037;-63
2023/07/24 00:31:20;;;;;;;0.73;0.60;;;;;;;20.82;95.01;99615.31;5009467;28;20030;-62
2023/07/24 00:33:46;;;;;;;0.82;0.60;;;;;;;20.92;94.33;99617.66;4999265;28;20378;-62
2023/07/24 00:36:11;;;;;;;1.08;0.77;;;;;;;20.94;94.30;99620.72;5003670;28;20434;-63
2023/07/24 00:38:39;;;;;;;1.10;0.50;;;;;;;20.91;94.65;99612.59;5009454;28;20474;-62
2023/07/24 00:41:04;;;;;;;0.93;0.60;;;;;;;20.88;94.80;99611.56;5006084;28;20036;-64
2023/07/24 00:43:30;;;;;;;0.80;0.52;;;;;;;20.82;95.32;99607.88;5008220;28;20034;-64
2023/07/24 00:45:56;;;;;;;1.05;0.68;;;;;;;20.86;95.40;99613.19;5076820;28;20478;-62
2023/07/24 00:48:22;;;;;;;0.50;0.38;;;;;;;20.92;95.06;99608.66;5009441;28;20443;-64
2023/07/24 00:50:48;;;;;;;1.42;0.65;;;;;;;20.87;95.53;99601.78;5071849;28;20041;-64
2023/07/24 00:53:15;;;;;;;1.00;0.80;;;;;;;20.86;95.61;99605.00;5075081;28;20522;-63
2023/07/24 00:55:41;;;;;;;1.70;0.77;;;;;;;20.84;96.21;99605.44;5075496;28;20037;-63
2023/07/24 00:58:08;;;;;;;1.17;0.63;;;;;;;20.91;95.76;99607.13;5066762;28;20494;-63
2023/07/24 01:00:34;;;;;;;1.35;0.63;;;;;;;20.91;95.34;99604.38;5009076;28;20102;-62
2023/07/24 01:03:00;;;;;;;2.83;1.00;;;;;;;20.84;95.84;99602.72;5059410;28;20042;-63
2023/07/24 01:05:46;;;;;;;1.05;0.80;;;;;;;20.79;96.26;99608.00;4998710;28;20418;-63
2023/07/24 01:08:11;;;;;;;2.30;0.60;;;;;;;20.82;96.26;99607.09;5038356;28;20094;-62
2023/07/24 01:10:37;;;;;;;1.48;0.85;;;;;;;20.77;96.27;99602.97;5048677;28;20091;-62
2023/07/24 01:13:08;;;;;;;1.30;0.82;;;;;;;20.86;96.38;99611.22;5027891;28;20107;-62
2023/07/24 01:15:37;;;;;;;2.45;0.90;;;;;;;20.81;96.22;99611.06;5009425;28;20674;-62
2023/07/24 01:18:09;;;;;;;4.15;0.73;;;;;;;20.83;96.23;99603.91;5055797;28;20036;-62
2023/07/24 01:20:37;;;;;;;2.70;0.82;;;;;;;20.89;96.21;99606.81;5048475;28;20084;-62
2023/07/24 01:23:37;;;;;;;1.20;0.60;;;;;;;20.82;96.60;99605.13;5028113;28;20395;-62
2023/07/24 01:26:05;;;;;;;1.75;0.65;;;;;;;20.82;96.80;99601.63;5035020;28;20198;-62
2023/07/24 01:28:30;;;;;;;0.63;0.63;;;;;;;20.82;97.10;99599.66;5055364;28;20037;-62
2023/07/24 01:30:57;;;;;;;1.33;0.75;;;;;;;20.86;96.47;99599.50;5028827;28;20041;-61
2023/07/24 01:33:23;;;;;;;0.70;0.70;;;;;;;20.94;96.44;99595.28;5010999;28;20462;-64
2023/07/24 01:35:53;;;;;;;0.88;0.80;;;;;;;20.93;96.73;99597.25;5053014;28;20049;-63
2023/07/24 01:38:19;;;;;;;1.02;0.55;;;;;;;20.87;96.37;99601.03;5021177;28;20404;-63
2023/07/24 01:40:45;;;;;;;1.25;0.70;;;;;;;20.85;96.86;99598.75;5017944;28;20040;-63
2023/07/24 01:43:10;;;;;;;0.68;0.68;;;;;;;20.91;97.05;99601.66;5060253;28;20677;-64
2023/07/24 01:45:36;;;;;;;0.88;0.68;;;;;;;20.96;96.18;99593.63;5058462;28;20038;-63
2023/07/24 01:48:04;;;;;;;1.30;0.80;;;;;;;20.98;96.40;99591.19;5004270;28;20030;-63
2023/07/24 01:50:29;;;;;;;1.38;0.90;;;;;;;20.88;97.02;99588.88;5007818;28;20034;-64
2023/07/24 01:52:55;;;;;;;2.03;1.00;;;;;;;20.92;96.52;99593.00;5007349;28;20500;-62
2023/07/24 01:55:20;;;;;;;1.52;0.68;;;;;;;20.95;96.67;99586.63;5008190;28;20105;-63
2023/07/24 01:57:46;;;;;;;1.05;0.65;;;;;;;20.89;97.24;99582.94;5002611;28;20109;-63
2023/07/24 02:00:11;;;;;;;1.23;0.70;;;;;;;20.85;97.73;99579.59;5075150;28;20030;-61
2023/07/24 02:02:37;;;;;;;1.38;0.70;;;;;;;20.83;97.68;99592.97;5066946;28;20130;-63
2023/07/24 02:05:04;;;;;;;1.38;0.98;;;;;;;20.88;97.46;99581.44;5004584;28;20494;-63
2023/07/24 02:07:29;;;;;;;0.70;0.70;;;;;;;20.90;97.78;99586.44;5067863;28;20073;-63
2023/07/24 02:09:55;;;;;;;1.20;0.77;;;;;;;20.88;97.55;99581.44;5065208;28;20062;-64
2023/07/24 02:12:41;;;;;;;0.80;0.70;;;;;;;20.97;97.21;99577.94;5003148;28;20563;-64
2023/07/24 02:15:07;;;;;;;2.03;1.05;;;;;;;20.90;97.75;99583.72;4984015;28;20043;-63
2023/07/24 02:17:33;;;;;;;1.42;0.90;;;;;;;20.85;97.91;99582.31;5004888;28;20042;-62
2023/07/24 02:19:58;;;;;;;1.08;0.77;;;;;;;20.88;98.09;99575.19;5008103;28;20455;-63
2023/07/24 02:22:24;;;;;;;1.00;0.85;;;;;;;20.90;98.24;99573.53;4987701;28;20057;-64
2023/07/24 02:24:50;;;;;;;1.30;0.77;;;;;;;20.91;97.94;99580.53;4997086;28;20403;-62
2023/07/24 02:27:27;;;;;;;1.30;0.68;;;;;;;20.86;97.85;99583.84;4989909;28;20038;-63
2023/07/24 02:29:54;;;;;;;1.92;0.90;;;;;;;20.80;98.43;99569.22;5006314;28;20042;-64
2023/07/24 02:32:22;;;;;;;0.88;0.75;;;;;;;20.88;98.47;99575.19;5007662;28;20569;-63
2023/07/24 02:34:50;;;;;;;1.25;0.75;;;;;;;20.99;97.65;99575.53;4994554;28;20042;-62
2023/07/24 02:37:16;;;;;;;0.82;0.63;;;;;;;20.97;97.56;99578.72;5000664;28;20033;-63
2023/07/24 02:39:41;;;;;;;1.52;1.00;;;;;;;21.00;97.55;99577.06;5008563;28;20046;-62
2023/07/24 02:42:07;;;;;;;1.10;1.00;;;;;;;20.95;97.95;99580.38;4999221;28;20503;-62
2023/07/24 02:44:34;;;;;;;1.67;1.15;;;;;;;20.96;97.93;99585.44;4998575;28;20026;-62
2023/07/24 02:47:01;;;;;;;1.33;0.90;;;;;;;20.93;98.04;99577.31;5007949;28;20040;-62
2023/07/24 02:49:47;;;;;;;1.35;1.00;;;;;;;20.99;97.95;99570.06;5004795;28;20050;-61
2023/07/24 02:52:13;;;;;;;4.43;0.95;;;;;;;20.96;98.24;99582.69;4963029;28;20154;-62
2023/07/24 02:54:38;;;;;;;1.00;0.80;;;;;;;21.00;97.96;99577.81;5003213;28;20263;-62
2023/07/24 02:57:04;;;;;;;1.55;0.77;;;;;;;20.95;98.28;99581.16;4996286;28;20042;-63
2023/07/24 02:59:31;;;;;;;1.33;0.68;;;;;;;20.93;98.28;99583.56;5007601;28;20145;-62
2023/07/24 03:01:57;;;;;;;1.23;0.75;;;;;;;20.97;98.13;99584.19;5007579;28;20076;-62
2023/07/24 03:04:23;;;;;;;1.63;0.98;;;;;;;21.00;97.45;99588.03;4991496;28;20163;-62
2023/07/24 03:06:49;;;;;;;0.73;0.68;;;;;;;20.94;98.15;99585.13;5007869;28;20037;-62
2023/07/24 03:09:14;;;;;;;1.90;0.93;;;;;;;21.01;97.70;99578.59;5008001;28;20049;-62
2023/07/24 03:11:40;;;;;;;1.00;0.90;;;;;;;20.95;97.75;99585.84;5002621;28;20061;-63
2023/07/24 03:14:05;;;;;;;1.38;0.77;;;;;;;20.92;98.20;99587.53;5002238;28;20046;-62
2023/07/24 03:16:31;;;;;;;1.35;0.82;;;;;;;20.87;98.27;99588.09;4986148;28;20073;-62
2023/07/24 03:18:57;;;;;;;1.30;0.90;;;;;;;20.98;97.61;99580.22;4990807;28;20029;-62
2023/07/24 03:21:23;;;;;;;1.10;0.75;;;;;;;20.94;97.92;99582.38;4991524;28;20033;-62
2023/07/24 03:23:48;;;;;;;1.25;0.90;;;;;;;20.94;98.02;99579.63;5004722;28;20524;-62
2023/07/24 03:26:14;;;;;;;1.38;0.70;;;;;;;20.95;98.01;99580.38;4983913;28;20483;-62
2023/07/24 03:28:39;;;;;;;1.48;0.82;;;;;;;20.95;97.90;99581.16;4998087;28;20035;-62
2023/07/24 03:31:04;;;;;;;2.28;0.85;;;;;;;20.98;97.52;99574.75;5003680;28;20621;-62
2023/07/24 03:33:30;;;;;;;3.65;1.50;;;;;;;20.96;97.78;99571.72;5061974;28;20079;-62
2023/07/24 03:35:55;;;;;;;1.50;1.02;;;;;;;20.95;97.65;99575.66;5094460;28;20038;-62
2023/07/24 03:38:21;;;;;;;1.80;1.08;;;;;;;21.04;96.73;99570.25;5010246;28;20075;-63
2023/07/24 03:40:47;;;;;;;1.23;0.95;;;;;;;20.99;97.05;99572.78;5070420;28;20018;-63
2023/07/24 03:43:12;;;;;;;1.60;1.10;;;;;;;20.92;97.19;99578.56;5009260;28;20037;-63
2023/07/24 03:45:38;;;;;;;1.55;0.88;;;;;;;20.91;97.54;99571.53;5078128;28;20041;-62
2023/07/24 03:48:03;;;;;;;1.52;0.98;;;;;;;20.87;97.61;99570.91;5007241;28;20535;-62
2023/07/24 03:50:29;;;;;;;1.75;0.88;;;;;;;20.92;97.29;99573.84;5001675;28;20030;-62
2023/07/24 03:52:54;;;;;;;1.42;1.00;;;;;;;20.90;97.13;99572.75;5009323;28;20050;-62
2023/07/24 03:55:20;;;;;;;0.65;0.65;;;;;;;20.81;97.75;99573.47;5076599;28;20072;-62
2023/07/24 03:57:45;;;;;;;1.10;0.70;;;;;;;20.90;97.10;99573.53;4999450;28;20036;-63
2023/07/24 04:00:11;;;;;;;0.70;0.60;;;;;;;20.88;97.21;99573.22;5009671;28;20535;-62
2023/07/24 04:02:40;;;;;;;1.75;0.90;;;;;;;20.89;96.98;99582.94;5065464;28;20521;-62
2023/07/24 04:05:05;;;;;;;0.63;0.60;;;;;;;20.79;96.73;99584.13;4999221;28;20038;-62
2023/07/24 04:07:31;;;;;;;1.13;0.88;;;;;;;20.71;97.51;99574.69;5006181;28;20018;-63
2023/07/24 04:09:56;;;;;;;1.63;1.08;;;;;;;20.78;97.52;99588.06;5009356;28;20038;-63
2023/07/24 04:12:22;;;;;;;1.13;0.80;;;;;;;20.71;97.64;99587.59;4998575;28;20060;-64
2023/07/24 04:14:48;;;;;;;0.98;0.88;;;;;;;20.67;97.75;99585.00;5008934;28;20371;-64
2023/07/24 04:17:14;;;;;;;1.23;0.90;;;;;;;20.65;97.96;99573.75;5009517;28;20517;-62
2023/07/24 04:19:40;;;;;;;1.38;0.85;;;;;;;20.79;97.01;99572.44;5002022;28;20058;-62
2023/07/24 04:22:05;;;;;;;1.48;0.93;;;;;;;20.78;96.49;99576.38;5008468;28;20510;-63
2023/07/24 04:24:31;;;;;;;2.25;1.02;;;;;;;20.77;97.19;99572.84;5009603;28;20045;-63
2023/07/24 04:26:56;;;;;;;1.13;0.90;;;;;;;20.74;97.04;99562.81;5000466;28;20030;-62
2023/07/24 04:29:24;;;;;;;1.15;0.98;;;;;;;20.71;97.54;99554.75;5004563;28;20026;-63
2023/07/24 04:31:50;;;;;;;1.42;0.93;;;;;;;20.66;97.92;99565.06;5008796;28;20087;-62
2023/07/24 04:34:16;;;;;;;1.05;0.75;;;;;;;20.69;98.18;99563.41;5003991;28;20030;-62
2023/07/24 04:36:41;;;;;;;1.88;0.82;;;;;;;20.71;97.48;99566.47;5008363;28;20108;-62
2023/07/24 04:39:06;;;;;;;0.73;0.60;;;;;;;20.66;98.16;99565.06;5071942;28;20118;-62
2023/07/24 04:41:32;;;;;;;0.93;0.85;;;;;;;20.73;98.03;99558.53;4998091;28;20035;-63
2023/07/24 04:43:57;;;;;;;1.55;1.15;;;;;;;20.83;97.69;99560.09;5007902;28;20152;-64
2023/07/24 04:46:23;;;;;;;1.40;1.00;;;;;;;20.74;97.96;99556.56;5008901;28;20025;-63
2023/07/24 04:48:48;;;;;;;3.60;1.10;;;;;;;20.73;98.27;99561.28;5002166;28;20109;-64
2023/07/24 04:51:14;;;;;;;1.45;0.95;;;;;;;20.86;97.77;99552.97;5006062;28;20049;-62
2023/07/24 04:53:39;;;;;;;0.88;0.70;;;;;;;20.88;97.57;99554.06;5008307;28;20029;-62
2023/07/24 04:56:08;;;;;;;1.65;0.90;;;;;;;21.00;97.23;99560.63;5008237;28;20449;-62
2023/07/24 04:58:33;;;;;;;2.38;1.17;;;;;;;21.04;96.75;99555.81;5002184;28;20045;-62
2023/07/24 05:01:03;;;;;;;1.75;0.82;;;;;;;20.97;96.87;99550.56;5066327;28;20030;-62
2023/07/24 05:03:29;;;;;;;1.17;0.82;;;;;;;20.99;97.29;99550.88;5006223;28;20069;-61
2023/07/24 05:05:55;;;;;;;1.60;1.00;;;;;;;21.03;97.50;99546.06;5007609;28;20052;-62
2023/07/24 05:08:21;;;;;;;2.22;0.95;;;;;;;21.09;96.89;99547.00;5005559;28;20779;-63
2023/07/24 05:10:47;;;;;;;2.17;1.02;;;;;;;21.07;96.83;99550.19;5002533;28;20054;-63
2023/07/24 05:13:12;;;;;;;2.25;1.00;;;;;;;21.03;96.79;99541.34;5006540;28;20038;-61
2023/07/24 05:15:38;;;;;;;1.67;1.10;;;;;;;21.09;97.18;99541.50;4998263;28;20078;-63
2023/07/24 05:18:03;;;;;;;1.15;0.90;;;;;;;21.11;97.07;99539.84;5007782;28;20440;-64
2023/07/24 05:20:28;;;;;;;1.70;0.98;;;;;;;21.19;96.76;99545.81;5072043;28;20059;-63
2023/07/24 05:22:54;;;;;;;1.70;1.23;;;;;;;21.22;96.91;99542.91;5005104;28;20379;-62
2023/07/24 05:25:19;;;;;;;0.93;0.70;;;;;;;21.30;95.90;99541.41;5008000;28;20127;-62
2023/07/24 05:27:45;;;;;;;1.83;1.08;;;;;;;21.41;95.24;99541.72;5008680;28;20379;-62
2023/07/24 05:30:10;;;;;;;2.25;1.45;;;;;;;21.35;95.50;99546.28;5007428;28;20473;-61
2023/07/24 05:32:36;;;;;;;1.48;1.02;;;;;;;21.42;95.22;99540.50;5005989;28;20037;-62
2023/07/24 05:35:01;;;;;;;1.52;0.93;;;;;;;21.42;95.55;99534.25;5007879;28;20394;-63
2023/07/24 05:37:26;;;;;;;1.42;0.95;;;;;;;21.59;94.83;99535.47;5008582;28;20037;-62
2023/07/24 05:39:52;;;;;;;1.08;0.90;;;;;;;21.79;93.71;99532.28;5067710;28;20042;-62
2023/07/24 05:42:17;;;;;;;1.05;0.95;;;;;;;21.89;94.29;99531.09;5007825;28;20034;-62
2023/07/24 05:44:43;;;;;;;1.45;1.00;;;;;;;21.93;93.34;99528.97;4999224;28;20056;-62
2023/07/24 05:47:08;;;;;;;2.00;1.13;;;;;;;22.04;93.16;99531.97;5007453;28;20514;-63
2023/07/24 05:49:34;;;;;;;2.15;1.00;;;;;;;22.08;92.88;99518.88;5007876;28;20513;-63
2023/07/24 05:51:59;;;;;;;1.27;1.17;;;;;;;22.20;91.89;99512.44;5005683;28;20029;-63
2023/07/24 05:54:25;;;;;;;1.23;0.80;;;;;;;22.08;91.31;99510.63;4998033;28;20042;-62
2023/07/24 05:56:52;;;;;;;2.83;1.10;;;;;;;22.03;91.54;99505.75;5007684;28;20054;-63
2023/07/24 05:59:17;;;;;;;2.50;1.40;;;;;;;22.08;90.81;99511.41;5008156;28;20100;-62
2023/07/24 06:01:43;;;;;;;1.55;0.98;;;;;;;22.13;91.00;99513.53;4998606;28;20129;-65
2023/07/24 06:04:08;;;;;;;1.88;1.25;;;;;;;22.02;91.23;99507.75;5007634;28;20037;-61
2023/07/24 06:06:34;;;;;;;2.13;0.95;;;;;;;22.00;91.22;99517.66;5008026;28;20475;-63
2023/07/24 06:08:59;;;;;;;1.30;0.90;;;;;;;21.99;91.52;99507.94;5007939;28;20034;-63
2023/07/24 06:11:26;;;;;;;1.33;0.88;;;;;;;21.98;91.34;99506.38;5064157;28;20084;-62
2023/07/24 06:13:52;;;;;;;2.75;0.85;;;;;;;21.96;92.10;99501.38;5006815;28;20479;-62
2023/07/24 06:16:18;;;;;;;1.80;0.75;;;;;;;22.01;91.50;99506.22;5005187;28;20034;-62
2023/07/24 06:18:43;;;;;;;0.77;0.73;;;;;;;21.98;91.65;99506.38;5007771;28;20040;-64
2023/07/24 06:21:09;;;;;;;6.55;0.68;;;;;;;21.99;92.08;99499.69;5007836;28;20045;-64
2023/07/24 06:23:34;;;;;;;2.15;0.90;;;;;;;22.09;91.19;99506.66;5006880;28;20080;-64
2023/07/24 06:25:59;;;;;;;1.00;0.80;;;;;;;22.14;90.53;99501.31;4994721;28;20446;-64
2023/07/24 06:28:25;;;;;;;0.95;0.68;;;;;;;22.13;90.82;99499.03;5007587;28;20030;-62
2023/07/24 06:30:53;;;;;;;1.40;0.82;;;;;;;22.11;90.78;99506.97;5007871;28;20028;-63
2023/07/24 06:33:18;;;;;;;0.70;0.70;;;;;;;22.20;90.49;99502.22;4999253;28;20470;-61
2023/07/24 06:35:44;;;;;;;0.93;0.77;;;;;;;22.21;90.39;99502.97;5073909;28;20120;-63
2023/07/24 06:38:09;;;;;;;1.35;0.85;;;;;;;22.19;89.66;99499.94;5007073;28;20432;-62
2023/07/24 06:40:35;;;;;;;2.72;0.93;;;;;;;22.17;89.85;99496.91;5007996;28;20398;-62
2023/07/24 06:43:00;;;;;;;1.55;1.00;;;;;;;22.11;89.92;99496.75;4996749;28;20037;-62
2023/07/24 06:45:25;;;;;;;1.85;0.75;;;;;;;22.10;90.05;99494.47;5007013;28;20434;-62
2023/07/24 06:47:51;;;;;;;1.52;0.93;;;;;;;22.11;89.91;99496.00;4999351;28;20517;-62
2023/07/24 06:50:17;;;;;;;1.50;1.00;;;;;;;22.14;90.15;99492.34;5002041;28;20090;-62
2023/07/24 06:52:42;;;;;;;1.25;0.90;;;;;;;22.20;90.20;99487.75;5005919;28;20045;-64
2023/07/24 06:55:08;;;;;;;1.65;0.80;;;;;;;22.26;90.03;99496.88;5007515;28;20041;-64
2023/07/24 06:57:33;;;;;;;1.65;0.75;;;;;;;22.38;88.76;99490.41;5002919;28;20042;-63
2023/07/24 06:59:58;;;;;;;1.38;1.02;;;;;;;22.29;88.90;99498.69;5010501;28;20022;-63
2023/07/24 07:02:24;;;;;;;1.20;0.85;;;;;;;22.25;88.93;99487.88;5075334;28;20116;-63
2023/07/24 07:04:49;;;;;;;2.03;0.80;;;;;;;22.30;88.28;99497.44;5010291;28;20108;-62
2023/07/24 07:07:15;;;;;;;1.08;0.60;;;;;;;22.25;88.90;99487.88;5004268;28;20112;-62
2023/07/24 07:09:40;;;;;;;1.38;0.82;;;;;;;22.31;88.93;99497.00;5010076;28;20066;-62
2023/07/24 07:12:06;;;;;;;1.17;0.80;;;;;;;22.35;89.03;99491.34;5009785;28;20025;-62
2023/07/24 07:14:32;;;;;;;1.08;0.88;;;;;;;22.42;88.80;99485.53;5000414;28;20033;-63
2023/07/24 07:16:57;;;;;;;0.57;0.57;;;;;;;22.39;88.59;99479.00;5010370;28;20421;-62
2023/07/24 07:19:23;;;;;;;1.67;0.93;;;;;;;22.41;88.59;99487.50;5007803;28;20113;-62
2023/07/24 07:21:48;;;;;;;1.20;0.50;;;;;;;22.31;88.79;99480.56;5002887;28;20018;-64
2023/07/24 07:24:13;;;;;;;0.75;0.50;;;;;;;22.31;88.70;99482.53;5010087;28;20034;-64
2023/07/24 07:26:39;;;;;;;1.30;0.82;;;;;;;22.32;89.33;99481.28;5010176;28;20030;-63
2023/07/24 07:29:04;;;;;;;0.82;0.70;;;;;;;22.33;88.43;99472.63;5070065;28;20393;-64
2023/07/24 07:31:30;;;;;;;1.13;0.50;;;;;;;22.33;88.88;99472.63;5006848;28;20018;-63
2023/07/24 07:33:55;;;;;;;1.88;1.13;;;;;;;22.37;89.09;99478.69;5009244;28;20057;-63
2023/07/24 07:36:22;;;;;;;0.88;0.68;;;;;;;22.42;88.19;99480.03;5008170;28;20490;-61
2023/07/24 07:38:48;;;;;;;1.40;1.15;;;;;;;22.45;88.20;99479.13;5071171;28;20060;-64
2023/07/24 07:41:13;;;;;;;0.98;0.65;;;;;;;22.48;88.43;99477.41;5010212;28;20022;-63
2023/07/24 07:43:39;;;;;;;0.60;0.60;;;;;;;22.49;88.41;99476.22;4998087;28;20103;-62
2023/07/24 07:46:04;;;;;;;1.52;0.70;;;;;;;22.44;87.54;99472.09;5005139;28;20167;-63
2023/07/24 07:48:30;;;;;;;0.95;0.70;;;;;;;22.47;87.69;99479.44;5010030;28;20042;-63
2023/07/24 07:50:55;;;;;;;1.88;0.65;;;;;;;22.42;87.39;99486.28;5009961;28;20090;-63
2023/07/24 07:53:20;;;;;;;2.17;0.98;;;;;;;22.39;87.63;99489.97;5009155;28;20037;-63
2023/07/24 07:55:46;;;;;;;1.20;0.73;;;;;;;22.39;87.30;99487.22;4996878;28;20103;-64
2023/07/24 07:58:11;;;;;;;1.55;0.82;;;;;;;22.38;87.51;99487.66;5009759;28;20034;-63
2023/07/24 08:00:39;;;;;;;1.60;0.70;;;;;;;22.35;87.44;99489.38;5003344;28;20509;-63
2023/07/24 08:03:05;;;;;;;1.90;0.85;;;;;;;22.27;87.81;99488.19;5002935;28;20056;-63
2023/07/24 08:05:32;;;;;;;1.42;0.60;;;;;;;22.25;88.79;99473.41;5009444;28;20065;-63
2023/07/24 08:07:57;;;;;;;0.80;0.60;;;;;;;22.29;88.85;99482.22;5009127;28;20109;-63
2023/07/24 08:10:23;;;;;;;1.27;0.85;;;;;;;22.36;88.60;99476.41;5001084;28;20126;-63
2023/07/24 08:12:48;;;;;;;0.57;0.57;;;;;;;22.34;89.18;99479.63;5007477;28;20108;-62
2023/07/24 08:15:14;;;;;;;0.95;0.80;;;;;;;22.36;89.33;99476.41;5009757;28;20022;-62
2023/07/24 08:17:39;;;;;;;2.45;1.08;;;;;;;22.40;89.31;99466.03;5072611;28;20712;-62
2023/07/24 08:20:06;;;;;;;1.58;0.77;;;;;;;22.43;89.70;99476.81;5003356;28;20034;-62
2023/07/24 08:22:31;;;;;;;1.00;0.77;;;;;;;22.52;89.13;99478.00;5008667;28;20440;-63
2023/07/24 08:24:57;;;;;;;2.17;0.88;;;;;;;22.53;89.10;99472.06;5009437;28;20038;-63
2023/07/24 08:27:22;;;;;;;1.90;1.13;;;;;;;22.67;88.25;99471.41;5000195;28;20025;-63
2023/07/24 08:29:52;;;;;;;1.48;0.85;;;;;;;22.73;87.61;99469.53;5009227;28;20045;-64
2023/07/24 08:32:17;;;;;;;2.20;1.02;;;;;;;22.80;87.35;99469.19;4996888;28;20487;-64
2023/07/24 08:34:43;;;;;;;2.30;1.00;;;;;;;22.79;88.30;99475.94;4998939;28;20045;-64
2023/07/24 08:37:08;;;;;;;1.67;1.15;;;;;;;22.82;88.10;99466.75;5009309;28;20026;-63
2023/07/24 08:39:34;;;;;;;1.40;0.88;;;;;;;22.99;87.49;99461.63;5074633;28;20552;-63
2023/07/24 08:41:59;;;;;;;2.00;1.10;;;;;;;22.96;87.57;99457.81;5004603;28;20964;-63
2023/07/24 08:44:27;;;;;;;2.90;1.10;;;;;;;23.10;87.96;99459.84;5001710;28;20042;-62
2023/07/24 08:46:53;;;;;;;1.52;1.17;;;;;;;23.22;88.05;99458.09;5086806;28;20022;-62
2023/07/24 08:49:19;;;;;;;3.58;0.95;;;;;;;23.32;87.82;99459.56;5072874;28;20133;-62
2023/07/24 08:51:45;;;;;;;1.92;0.80;;;;;;;23.42;87.98;99450.03;5008366;28;20053;-62
2023/07/24 08:54:11;;;;;;;2.35;1.25;;;;;;;23.69;85.90;99469.00;4998965;28;20107;-63
2023/07/24 08:56:41;;;;;;;1.23;0.90;;;;;;;23.65;86.03;99473.19;5008380;28;20073;-62
2023/07/24 08:59:07;;;;;;;2.10;1.20;;;;;;;23.56;86.08;99465.00;5009173;28;20544;-63
2023/07/24 09:01:32;;;;;;;1.45;1.05;;;;;;;23.54;86.22;99464.72;5008489;28;20045;-62
2023/07/24 09:03:58;;;;;;;2.03;1.30;;;;;;;23.43;86.71;99472.75;4993779;28;20026;-64
2023/07/24 09:06:23;;;;;;;1.98;1.33;;;;;;;23.46;86.17;99460.84;5007799;28;20059;-62
2023/07/24 09:08:53;;;;;;;1.50;1.10;;;;;;;23.55;86.56;99458.00;4997078;28;20060;-64
2023/07/24 09:11:18;;;;;;;1.23;0.95;;;;;;;23.56;86.34;99459.50;5007375;28;20040;-63
2023/07/24 09:13:44;;;;;;;1.67;1.25;;;;;;;23.53;86.29;99471.44;5007784;28;20464;-62
2023/07/24 09:16:21;;;;;;;2.53;0.98;;;;;;;23.53;85.87;99466.72;5000086;28;20053;-62
2023/07/24 09:18:46;;;;;;;2.78;1.23;;;;;;;23.54;86.20;99462.72;5007441;28;20034;-63
2023/07/24 09:21:12;;;;;;;1.63;1.15;;;;;;;23.75;85.82;99460.88;5072241;28;20034;-62
2023/07/24 09:23:43;;;;;;;2.15;1.27;;;;;;;24.04;85.34;99460.91;5007938;28;20026;-62
2023/07/24 09:26:08;;;;;;;2.15;0.98;;;;;;;24.33;85.11;99460.84;5008799;28;20398;-62
2023/07/24 09:28:35;;;;;;;1.75;1.15;;;;;;;24.49;84.80;99459.56;4996958;28;20029;-62
2023/07/24 09:31:01;;;;;;;1.25;1.13;;;;;;;24.80;83.46;99463.31;5002666;28;20108;-62
2023/07/24 09:33:38;;;;;;;1.77;1.38;;;;;;;24.80;82.20;99449.53;5007410;28;20052;-63
2023/07/24 09:36:07;;;;;;;2.92;1.08;;;;;;;24.51;80.86;99449.59;5007582;28;20116;-64
2023/07/24 09:38:32;;;;;;;1.55;1.20;;;;;;;24.44;81.32;99454.75;5002533;28;20030;-63
2023/07/24 09:40:58;;;;;;;2.22;1.20;;;;;;;24.55;81.72;99444.66;5064931;28;20451;-63
2023/07/24 09:43:25;;;;;;;1.75;1.25;;;;;;;24.60;80.55;99449.47;5002707;28;20029;-63
2023/07/24 09:45:52;;;;;;;1.63;0.95;;;;;;;24.62;79.73;99446.25;5007639;28;20398;-63
2023/07/24 09:48:19;;;;;;;1.92;1.05;;;;;;;24.75;80.62;99439.22;5008540;28;20041;-64
2023/07/24 09:50:47;;;;;;;2.40;1.02;;;;;;;24.85;80.46;99439.84;4991210;28;20039;-64
2023/07/24 09:53:31;;;;;;;2.20;1.20;;;;;;;24.87;79.15;99437.34;5007402;28;20025;-64
2023/07/24 09:55:59;;;;;;;1.52;1.05;;;;;;;24.70;79.62;99459.13;5004591;28;20620;-64
2023/07/24 09:58:26;;;;;;;1.83;1.38;;;;;;;24.53;80.51;99444.38;5072556;28;20125;-64
2023/07/24 10:00:53;;;;;;;2.83;1.65;;;;;;;24.43;81.57;99434.72;5007890;28;20057;-63
2023/07/24 10:03:20;;;;;;;2.53;1.60;;;;;;;24.55;81.30;99433.63;5007439;28;20490;-63
2023/07/24 10:05:46;;;;;;;2.50;1.20;;;;;;;24.72;81.36;99434.66;4996592;28;20038;-62
2023/07/24 10:08:14;;;;;;;4.82;1.85;;;;;;;24.90;80.83;99428.88;5003294;28;20394;-62
2023/07/24 10:10:39;;;;;;;1.92;1.40;;;;;;;24.96;80.82;99421.44;5005161;28;20045;-62
2023/07/24 10:13:06;;;;;;;3.63;2.00;;;;;;;25.11;80.15;99417.81;5006846;28;20669;-62
2023/07/24 10:15:32;;;;;;;1.85;1.50;;;;;;;25.12;78.36;99416.59;5003326;28;20034;-62
2023/07/24 10:18:06;;;;;;;2.28;1.50;;;;;;;25.18;76.33;99428.44;5003139;28;20038;-63
2023/07/24 10:20:36;;;;;;;2.05;1.55;;;;;;;25.19;74.40;99432.72;4996396;28;20041;-64
2023/07/24 10:23:02;;;;;;;2.47;1.38;;;;;;;25.24;73.94;99440.31;4993171;28;20086;-64
2023/07/24 10:25:35;;;;;;;2.33;1.45;;;;;;;25.18;73.87;99434.72;5007424;28;20030;-62
2023/07/24 10:28:07;;;;;;;2.47;1.70;;;;;;;25.21;73.70;99438.50;5007665;28;20037;-62
2023/07/24 10:30:39;;;;;;;1.90;1.33;;;;;;;25.17;73.07;99426.94;5000261;28;20037;-61
2023/07/24 10:33:13;;;;;;;2.20;1.25;;;;;;;25.01;74.04;99434.53;5010106;28;20030;-64
2023/07/24 10:35:43;;;;;;;3.10;1.63;;;;;;;25.08;73.92;99433.34;4998962;28;20045;-64
2023/07/24 10:38:10;;;;;;;1.52;1.25;;;;;;;25.01;74.12;99423.50;5004378;28;20507;-64
2023/07/24 10:40:35;;;;;;;1.48;1.20;;;;;;;24.99;74.97;99422.44;5000512;28;20466;-64
2023/07/24 10:43:12;;;;;;;3.78;1.80;;;;;;;24.82;75.93;99427.00;5009965;28;20032;-63
2023/07/24 10:45:50;;;;;;;2.70;1.60;;;;;;;24.71;76.25;99430.38;5008631;28;20053;-63
2023/07/24 10:48:17;;;;;;;3.55;1.73;;;;;;;24.77;76.24;99428.47;5001176;28;20037;-62
2023/07/24 10:50:45;;;;;;;3.92;2.22;;;;;;;24.81;75.99;99423.50;5074587;28;20498;-62
2023/07/24 10:53:15;;;;;;;3.30;1.75;;;;;;;24.65;75.67;99413.00;5010337;28;20022;-63
2023/07/24 10:55:42;;;;;;;2.08;1.35;;;;;;;24.61;76.60;99415.19;4995053;28;20042;-63
2023/07/24 10:58:08;;;;;;;3.10;1.63;;;;;;;24.70;76.39;99425.34;5010797;28;20395;-63
2023/07/24 11:00:34;;;;;;;3.65;2.00;;;;;;;24.81;76.63;99429.03;5010682;28;20125;-63
2023/07/24 11:02:59;;;;;;;2.58;1.88;;;;;;;24.76;77.31;99426.94;4999568;28;20113;-62
2023/07/24 11:05:25;;;;;;;2.97;2.03;;;;;;;25.00;76.54;99432.25;5006179;28;20154;-63
2023/07/24 11:07:51;;;;;;;3.00;1.75;;;;;;;25.20;75.50;99435.00;5010892;28;20025;-63
2023/07/24 11:10:18;;;;;;;4.15;2.20;;;;;;;25.42;75.03;99428.97;5002171;28;20432;-63
2023/07/24 11:12:44;;;;;;;3.00;1.77;;;;;;;25.72;73.10;99425.53;5075380;28;20092;-63
2023/07/24 11:15:11;;;;;;;2.72;1.90;;;;;;;25.73;70.39;99423.53;5010722;28;20087;-63
2023/07/24 11:17:40;;;;;;;2.92;1.67;;;;;;;25.68;70.04;99411.22;5010301;28;20099;-63
2023/07/24 11:20:10;;;;;;;2.85;1.98;;;;;;;25.58;70.66;99420.13;5001795;28;20037;-64
2023/07/24 11:22:35;;;;;;;2.13;1.50;;;;;;;25.60;69.45;99409.38;5009585;28;20112;-64
2023/07/24 11:25:05;;;;;;;2.53;1.65;;;;;;;25.49;69.37;99409.25;5010035;28;20546;-64
2023/07/24 11:27:30;;;;;;;2.75;1.58;;;;;;;25.42;69.57;99401.41;5003068;28;20042;-62
2023/07/24 11:29:56;;;;;;;2.45;1.40;;;;;;;25.46;69.70;99401.94;5006344;28;20045;-63
2023/07/24 11:32:22;;;;;;;3.60;1.90;;;;;;;25.50;69.45;99396.97;5009563;28;20042;-63